createdAt,value
2022-12-01T00:01:11.824Z,38.53
2022-12-01T00:03:38.891Z,41.07
2022-12-01T00:06:06.999Z,38.50
2022-12-01T00:08:34.800Z,37.90
2022-12-01T00:11:10.231Z,40.53
2022-12-01T00:13:37.314Z,40.53
2022-12-01T00:16:13.176Z,40.70
2022-12-01T00:18:39.883Z,40.00
2022-12-01T00:21:06.809Z,40.50
2022-12-01T00:23:33.458Z,36.80
2022-12-01T00:26:06.383Z,37.20
2022-12-01T00:28:32.979Z,37.47
2022-12-01T00:31:00.274Z,36.90
2022-12-01T00:33:26.928Z,36.33
2022-12-01T00:35:59.972Z,34.97
2022-12-01T00:38:26.933Z,36.43
2022-12-01T00:40:53.595Z,33.70
2022-12-01T00:43:20.486Z,37.30
2022-12-01T00:45:47.423Z,36.03
2022-12-01T00:48:14.069Z,34.33
2022-12-01T00:50:41.215Z,37.50
2022-12-01T00:53:07.953Z,36.27
2022-12-01T00:55:34.652Z,36.77
2022-12-01T00:58:01.310Z,37.27
2022-12-01T01:00:28.057Z,36.83
2022-12-01T01:02:54.789Z,36.20
2022-12-01T01:05:21.471Z,32.07
2022-12-01T01:07:48.109Z,32.60
2022-12-01T01:10:14.771Z,31.50
2022-12-01T01:12:41.390Z,33.57
2022-12-01T01:15:08.458Z,32.50
2022-12-01T01:17:35.055Z,31.27
2022-12-01T01:20:01.787Z,33.90
2022-12-01T01:22:28.463Z,32.20
2022-12-01T01:24:55.034Z,30.43
2022-12-01T01:27:21.602Z,29.10
2022-12-01T01:29:48.465Z,31.13
2022-12-01T01:32:15.250Z,33.63
2022-12-01T01:34:41.866Z,28.90
2022-12-01T01:37:08.477Z,31.40
2022-12-01T01:39:35.030Z,32.30
2022-12-01T01:42:01.578Z,31.07
2022-12-01T01:44:47.270Z,28.10
2022-12-01T01:47:15.259Z,27.27
2022-12-01T01:49:43.021Z,31.07
2022-12-01T01:52:09.989Z,30.97
2022-12-01T01:54:44.513Z,28.95
2022-12-01T01:57:15.136Z,32.63
2022-12-01T01:59:50.465Z,32.30
2022-12-01T02:02:17.660Z,30.40
2022-12-01T02:04:52.548Z,30.43
2022-12-01T02:07:20.038Z,30.47
2022-12-01T02:09:47.175Z,28.50
2022-12-01T02:12:17.078Z,29.17
2022-12-01T02:15:08.712Z,26.87
2022-12-01T02:17:55.700Z,29.47
2022-12-01T02:20:52.423Z,33.23
2022-12-01T02:24:04.848Z,29.70
2022-12-01T02:27:03.740Z,29.70
2022-12-01T02:29:52.158Z,29.47
2022-12-01T02:32:43.471Z,32.50
2022-12-01T02:35:22.633Z,30.17
2022-12-01T02:38:07.289Z,29.67
2022-12-01T02:40:47.416Z,30.83
2022-12-01T02:43:30.797Z,30.73
2022-12-01T02:46:12.294Z,31.10
2022-12-01T02:48:43.033Z,35.80
2022-12-01T02:51:14.712Z,32.33
2022-12-01T02:53:41.629Z,33.03
2022-12-01T02:56:11.683Z,35.90
2022-12-01T02:58:38.555Z,33.90
2022-12-01T03:01:45.024Z,34.37
2022-12-01T03:04:20.627Z,35.33
2022-12-01T03:07:08.233Z,37.43
2022-12-01T03:09:42.723Z,35.77
2022-12-01T03:12:31.142Z,33.07
2022-12-01T03:14:57.782Z,34.07
2022-12-01T03:17:34.545Z,35.00
2022-12-01T03:20:13.050Z,34.33
2022-12-01T03:22:46.744Z,38.87
2022-12-01T03:25:15.232Z,33.10
2022-12-01T03:28:06.655Z,33.57
2022-12-01T03:30:36.687Z,36.17
2022-12-01T03:33:09.740Z,31.27
2022-12-01T03:35:47.062Z,32.60
2022-12-01T03:38:24.483Z,30.53
2022-12-01T03:40:55.018Z,32.77
2022-12-01T03:43:28.398Z,33.63
2022-12-01T03:46:17.955Z,33.33
2022-12-01T03:48:44.634Z,31.53
2022-12-01T03:51:44.576Z,33.53
2022-12-01T03:54:26.190Z,33.07
2022-12-01T03:56:57.834Z,33.73
2022-12-01T03:59:26.521Z,32.97
2022-12-01T04:01:53.342Z,32.23
2022-12-01T04:04:20.141Z,32.63
2022-12-01T04:06:50.295Z,31.07
2022-12-01T04:09:17.143Z,34.93
2022-12-01T04:12:02.119Z,33.03
2022-12-01T04:14:30.166Z,32.60
2022-12-01T04:16:56.765Z,33.63
2022-12-01T04:19:23.373Z,38.40
2022-12-01T04:21:50.061Z,32.67
2022-12-01T04:24:16.802Z,30.83
2022-12-01T04:26:44.483Z,31.00
2022-12-01T04:29:12.102Z,33.70
2022-12-01T04:31:39.051Z,32.47
2022-12-01T04:34:06.460Z,32.67
2022-12-01T04:36:34.600Z,33.27
2022-12-01T04:39:01.794Z,33.37
2022-12-01T04:41:28.468Z,34.47
2022-12-01T04:43:56.105Z,31.37
2022-12-01T04:46:23.908Z,35.93
2022-12-01T04:48:50.857Z,30.83
2022-12-01T04:51:17.883Z,35.70
2022-12-01T04:53:44.668Z,34.60
2022-12-01T04:56:11.477Z,34.00
2022-12-01T04:58:38.945Z,33.97
2022-12-01T05:01:11.940Z,36.37
2022-12-01T05:03:40.768Z,37.90
2022-12-01T05:06:10.148Z,34.43
2022-12-01T05:08:36.848Z,35.23
2022-12-01T05:11:05.037Z,37.37
2022-12-01T05:13:31.644Z,34.90
2022-12-01T05:16:06.738Z,30.17
2022-12-01T05:18:34.255Z,35.87
2022-12-01T05:21:01.260Z,34.60
2022-12-01T05:23:30.600Z,35.80
2022-12-01T05:25:57.364Z,31.97
2022-12-01T05:28:25.692Z,33.57
2022-12-01T05:30:54.201Z,32.67
2022-12-01T05:33:22.939Z,32.17
2022-12-01T05:35:50.312Z,28.40
2022-12-01T05:38:17.830Z,32.37
2022-12-01T05:40:53.411Z,31.87
2022-12-01T05:43:28.581Z,32.10
2022-12-01T05:45:56.009Z,32.13
2022-12-01T05:48:23.563Z,31.30
2022-12-01T05:50:50.130Z,30.83
2022-12-01T05:53:17.562Z,29.97
2022-12-01T05:55:44.432Z,30.23
2022-12-01T05:58:11.834Z,25.13
2022-12-01T06:00:45.312Z,29.67
2022-12-01T06:03:12.233Z,24.57
2022-12-01T06:05:38.884Z,24.00
2022-12-01T06:08:05.612Z,43.83
2022-12-01T06:10:32.388Z,26.53
2022-12-01T06:12:59.024Z,27.20
2022-12-01T06:15:26.252Z,25.17
2022-12-01T06:17:53.015Z,24.90
2022-12-01T06:20:19.664Z,23.50
2022-12-01T06:22:46.308Z,22.40
2022-12-01T06:25:12.877Z,22.73
2022-12-01T06:27:39.531Z,22.47
2022-12-01T06:30:07.060Z,23.70
2022-12-01T06:32:33.755Z,23.03
2022-12-01T06:35:00.429Z,19.97
2022-12-01T06:37:28.307Z,18.77
2022-12-01T06:39:55.061Z,18.97
2022-12-01T06:42:21.965Z,22.93
2022-12-01T06:44:50.004Z,22.73
2022-12-01T06:47:16.688Z,18.80
2022-12-01T06:49:44.089Z,20.40
2022-12-01T06:52:10.740Z,19.37
2022-12-01T06:54:37.691Z,19.77
2022-12-01T06:57:05.014Z,19.13
2022-12-01T06:59:31.995Z,18.67
2022-12-01T07:01:59.157Z,19.03
2022-12-01T07:04:25.974Z,18.80
2022-12-01T07:06:52.527Z,16.30
2022-12-01T07:09:19.294Z,15.97
2022-12-01T07:11:45.990Z,16.43
2022-12-01T07:14:24.535Z,18.07
2022-12-01T07:16:51.360Z,19.00
2022-12-01T07:19:18.325Z,16.47
2022-12-01T07:21:45.090Z,15.40
2022-12-01T07:24:14.503Z,16.57
2022-12-01T07:26:42.123Z,15.73
2022-12-01T07:29:11.774Z,17.50
2022-12-01T07:31:38.973Z,16.83
2022-12-01T07:34:06.652Z,15.80
2022-12-01T07:36:33.343Z,15.80
2022-12-01T07:39:00.561Z,18.37
2022-12-01T07:41:27.178Z,17.60
2022-12-01T07:43:55.369Z,13.97
2022-12-01T07:46:25.117Z,15.53
2022-12-01T07:48:53.838Z,16.77
2022-12-01T07:51:21.712Z,21.63
2022-12-01T07:53:49.646Z,15.87
2022-12-01T07:56:17.251Z,14.03
2022-12-01T07:58:44.109Z,14.40
2022-12-01T08:01:14.912Z,17.60
2022-12-01T08:03:42.469Z,14.63
2022-12-01T08:06:10.279Z,15.50
2022-12-01T08:08:39.191Z,15.13
2022-12-01T08:11:09.772Z,16.30
2022-12-01T08:13:36.532Z,14.47
2022-12-01T08:16:05.300Z,15.87
2022-12-01T08:18:35.284Z,17.17
2022-12-01T08:21:02.188Z,30.50
2022-12-01T08:23:28.960Z,15.63
2022-12-01T08:25:57.536Z,15.97
2022-12-01T08:28:24.303Z,15.27
2022-12-01T08:30:50.958Z,17.40
2022-12-01T08:33:17.649Z,15.47
2022-12-01T08:35:44.248Z,14.97
2022-12-01T08:38:11.237Z,14.97
2022-12-01T08:40:37.942Z,13.30
2022-12-01T08:43:05.388Z,16.40
2022-12-01T08:45:32.052Z,14.40
2022-12-01T08:47:59.921Z,14.47
2022-12-01T08:50:27.746Z,13.60
2022-12-01T08:52:54.666Z,14.10
2022-12-01T08:55:22.452Z,14.80
2022-12-01T08:57:49.081Z,16.47
2022-12-01T09:00:16.682Z,12.43
2022-12-01T09:02:43.329Z,14.17
2022-12-01T09:05:10.500Z,14.00
2022-12-01T09:07:37.169Z,14.80
2022-12-01T09:10:04.938Z,12.80
2022-12-01T09:12:31.690Z,13.53
2022-12-01T09:14:58.748Z,11.77
2022-12-01T09:17:25.361Z,12.73
2022-12-01T09:19:52.408Z,11.77
2022-12-01T09:22:19.215Z,10.10
2022-12-01T09:24:45.913Z,11.27
2022-12-01T09:27:13.271Z,10.30
2022-12-01T09:29:39.958Z,8.60
2022-12-01T09:32:06.523Z,9.57
2022-12-01T09:34:33.137Z,10.50
2022-12-01T09:36:59.904Z,11.38
2022-12-01T09:39:26.645Z,8.53
2022-12-01T09:42:08.756Z,8.40
2022-12-01T09:44:41.371Z,12.43
2022-12-01T09:47:19.289Z,8.13
2022-12-01T09:50:06.981Z,7.97
2022-12-01T09:52:40.823Z,8.33
2022-12-01T09:55:13.794Z,8.73
2022-12-01T09:57:41.569Z,7.37
2022-12-01T10:00:16.745Z,8.30
2022-12-01T10:03:01.644Z,8.90
2022-12-01T10:05:35.443Z,8.57
2022-12-01T10:08:06.018Z,8.90
2022-12-01T10:10:39.726Z,9.67
2022-12-01T10:13:26.974Z,9.60
2022-12-01T10:16:18.511Z,7.72
2022-12-01T10:19:01.779Z,9.50
2022-12-01T10:21:35.535Z,9.77
2022-12-01T10:24:33.933Z,9.03
2022-12-01T10:27:09.464Z,9.00
2022-12-01T10:29:45.044Z,9.60
2022-12-01T10:32:20.344Z,9.80
2022-12-01T10:34:48.394Z,10.87
2022-12-01T10:37:27.709Z,11.85
2022-12-01T10:39:55.688Z,12.40
2022-12-01T10:42:37.503Z,15.93
2022-12-01T10:45:07.927Z,11.45
2022-12-01T10:47:34.619Z,13.87
2022-12-01T10:50:03.909Z,13.27
2022-12-01T10:52:30.446Z,14.27
2022-12-01T10:54:57.075Z,13.27
2022-12-01T10:57:24.015Z,11.02
2022-12-01T11:00:08.752Z,12.00
2022-12-01T11:02:35.701Z,12.23
2022-12-01T11:05:06.090Z,12.80
2022-12-01T11:07:36.130Z,14.75
2022-12-01T11:10:02.775Z,12.33
2022-12-01T11:12:29.774Z,12.07
2022-12-01T11:14:58.419Z,14.63
2022-12-01T11:17:41.405Z,10.67
2022-12-01T11:20:40.991Z,12.77
2022-12-01T11:23:24.542Z,12.10
2022-12-01T11:25:59.469Z,16.83
2022-12-01T11:28:27.168Z,15.65
2022-12-01T11:31:02.744Z,13.35
2022-12-01T11:33:30.993Z,12.93
2022-12-01T11:35:58.094Z,12.87
2022-12-01T11:38:34.020Z,12.00
2022-12-01T11:41:00.865Z,13.07
2022-12-01T11:43:36.616Z,11.60
2022-12-01T11:46:07.880Z,11.45
2022-12-01T11:48:36.451Z,11.25
2022-12-01T11:51:24.434Z,11.37
2022-12-01T11:54:06.125Z,10.40
2022-12-01T11:56:32.706Z,12.93
2022-12-01T11:59:03.400Z,9.20
2022-12-01T12:01:41.463Z,10.48
2022-12-01T12:04:49.793Z,10.80
2022-12-01T12:07:47.829Z,10.93
2022-12-01T12:10:32.989Z,10.95
2022-12-01T12:13:15.222Z,9.48
2022-12-01T12:16:05.637Z,9.20
2022-12-01T12:19:06.577Z,10.40
2022-12-01T12:22:00.879Z,10.82
2022-12-01T12:24:53.146Z,10.52
2022-12-01T12:27:51.427Z,11.67
2022-12-01T12:30:26.285Z,11.20
2022-12-01T12:33:17.187Z,12.15
2022-12-01T12:36:02.704Z,15.43
2022-12-01T12:38:52.166Z,15.05
2022-12-01T12:41:29.759Z,16.33
2022-12-01T12:44:08.245Z,11.82
2022-12-01T12:46:53.927Z,12.30
2022-12-01T12:49:31.984Z,13.10
2022-12-01T12:52:08.418Z,12.23
2022-12-01T12:54:38.673Z,12.25
2022-12-01T12:57:19.448Z,15.35
2022-12-01T12:59:54.954Z,13.65
2022-12-01T13:02:33.062Z,23.47
2022-12-01T13:05:05.908Z,24.60
2022-12-01T13:07:35.148Z,17.60
2022-12-01T13:10:37.177Z,16.02
2022-12-01T13:13:18.218Z,15.60
2022-12-01T13:15:46.809Z,15.18
2022-12-01T13:18:28.417Z,15.60
2022-12-01T13:20:57.497Z,17.90
2022-12-01T13:23:24.763Z,17.02
2022-12-01T13:25:55.141Z,16.95
2022-12-01T13:28:35.200Z,16.77
2022-12-01T13:31:07.447Z,17.58
2022-12-01T13:33:36.340Z,17.23
2022-12-01T13:39:06.680Z,16.60
2022-12-01T13:41:38.629Z,19.00
2022-12-01T13:44:39.327Z,16.87
2022-12-01T13:47:08.970Z,18.70
2022-12-01T13:49:40.533Z,17.53
2022-12-01T13:52:22.458Z,18.23
2022-12-01T13:55:13.423Z,20.03
2022-12-01T13:58:14.239Z,19.23
2022-12-01T14:00:41.784Z,19.33
2022-12-01T14:03:19.245Z,18.97
2022-12-01T14:05:57.280Z,20.73
2022-12-01T14:08:44.222Z,20.50
2022-12-01T14:11:23.730Z,17.40
2022-12-01T14:14:00.030Z,18.83
2022-12-01T14:16:52.976Z,19.90
2022-12-01T14:19:28.287Z,21.43
2022-12-01T14:21:55.051Z,20.20
2022-12-01T14:24:31.885Z,21.53
2022-12-01T14:26:58.516Z,19.73
2022-12-01T14:29:33.834Z,24.50
2022-12-01T14:32:00.367Z,22.17
2022-12-01T14:34:31.517Z,27.80
2022-12-01T14:37:13.104Z,25.80
2022-12-01T14:40:13.074Z,25.43
2022-12-01T14:43:09.404Z,26.27
2022-12-01T14:45:45.376Z,24.57
2022-12-01T14:48:18.516Z,29.17
2022-12-01T14:50:51.390Z,27.23
2022-12-01T14:53:36.314Z,26.67
2022-12-01T14:56:12.896Z,25.97
2022-12-01T14:58:50.394Z,24.70
2022-12-01T15:01:17.094Z,24.63
2022-12-01T15:03:53.595Z,23.33
2022-12-01T15:06:23.207Z,21.70
2022-12-01T15:12:00.519Z,18.97
2022-12-01T15:14:47.183Z,19.83
2022-12-01T15:17:37.161Z,18.87
2022-12-01T15:20:05.182Z,17.47
2022-12-01T15:22:33.704Z,20.33
2022-12-01T15:25:14.978Z,21.47
2022-12-01T15:27:43.189Z,18.10
2022-12-01T15:30:14.099Z,19.73
2022-12-01T15:32:45.821Z,18.30
2022-12-01T15:35:20.641Z,14.93
2022-12-01T15:37:47.702Z,15.93
2022-12-01T15:43:23.593Z,15.63
2022-12-01T15:45:58.827Z,14.90
2022-12-01T15:48:34.297Z,14.80
2022-12-01T15:51:09.296Z,18.43
2022-12-01T15:53:40.089Z,18.60
2022-12-01T15:56:09.950Z,16.63
2022-12-01T15:58:43.250Z,17.37
2022-12-01T16:01:20.933Z,19.43
2022-12-01T16:03:50.309Z,19.90
2022-12-01T16:06:17.899Z,21.40
2022-12-01T16:08:57.305Z,20.30
2022-12-01T16:11:24.068Z,21.80
2022-12-01T16:14:08.137Z,20.77
2022-12-01T16:16:34.691Z,21.37
2022-12-01T16:19:26.609Z,20.43
2022-12-01T16:22:03.319Z,16.33
2022-12-01T16:24:32.058Z,22.73
2022-12-01T16:27:04.840Z,22.07
2022-12-01T16:29:47.420Z,21.10
2022-12-01T16:32:21.763Z,19.77
2022-12-01T16:34:51.414Z,17.77
2022-12-01T16:37:18.470Z,18.80
2022-12-01T16:39:45.092Z,21.97
2022-12-01T16:42:14.410Z,21.17
2022-12-01T16:44:43.716Z,20.50
2022-12-01T16:47:20.552Z,20.10
2022-12-01T16:49:47.311Z,20.53
2022-12-01T16:55:01.131Z,20.07
2022-12-01T16:57:27.781Z,17.80
2022-12-01T16:59:54.294Z,24.33
2022-12-01T17:02:20.975Z,19.20
2022-12-01T17:04:47.887Z,20.47
2022-12-01T17:07:14.781Z,20.53
2022-12-01T17:09:41.285Z,20.10
2022-12-01T17:12:07.981Z,20.87
2022-12-01T17:14:35.767Z,18.10
2022-12-01T17:17:02.290Z,19.87
2022-12-01T17:19:28.830Z,20.33
2022-12-01T17:21:57.014Z,21.67
2022-12-01T17:24:23.864Z,23.40
2022-12-01T17:26:50.446Z,21.60
2022-12-01T17:29:17.012Z,20.17
2022-12-01T17:31:43.599Z,23.30
2022-12-01T17:34:10.220Z,21.13
2022-12-01T17:36:36.820Z,23.97
2022-12-01T17:39:03.605Z,30.03
2022-12-01T17:41:35.849Z,24.43
2022-12-01T17:44:04.001Z,25.00
2022-12-01T17:46:31.397Z,25.97
2022-12-01T17:48:59.329Z,23.47
2022-12-01T17:51:26.026Z,32.63
2022-12-01T17:53:53.902Z,26.60
2022-12-01T17:56:20.426Z,29.47
2022-12-01T17:58:49.352Z,26.50
2022-12-01T18:01:18.496Z,21.53
2022-12-01T18:03:45.738Z,23.37
2022-12-01T18:06:13.361Z,15.40
2022-12-01T18:08:40.958Z,17.13
2022-12-01T18:11:11.123Z,19.00
2022-12-01T18:13:39.476Z,13.67
2022-12-01T18:16:11.814Z,14.70
2022-12-01T18:18:38.771Z,17.73
2022-12-01T18:21:10.430Z,15.77
2022-12-01T18:23:38.506Z,16.30
2022-12-01T18:26:12.259Z,15.60
2022-12-01T18:28:42.187Z,20.17
2022-12-01T18:31:11.532Z,18.13
2022-12-01T18:33:40.389Z,19.30
2022-12-01T18:36:13.645Z,18.37
2022-12-01T18:38:40.870Z,22.43
2022-12-01T18:41:07.885Z,21.10
2022-12-01T18:43:34.477Z,18.67
2022-12-01T18:46:03.617Z,17.70
2022-12-01T18:48:30.698Z,21.30
2022-12-01T18:51:02.910Z,21.50
2022-12-01T18:53:29.550Z,23.00
2022-12-01T18:55:56.105Z,23.83
2022-12-01T18:58:22.843Z,22.93
2022-12-01T19:00:49.705Z,24.97
2022-12-01T19:03:16.416Z,22.57
2022-12-01T19:05:42.936Z,24.53
2022-12-01T19:08:09.519Z,25.03
2022-12-01T19:10:36.149Z,33.70
2022-12-01T19:13:02.692Z,26.33
2022-12-01T19:15:29.811Z,26.60
2022-12-01T19:17:56.429Z,26.50
2022-12-01T19:20:23.087Z,28.33
2022-12-01T19:22:49.821Z,34.40
2022-12-01T19:25:16.417Z,28.03
2022-12-01T19:27:42.929Z,28.77
2022-12-01T19:30:10.058Z,29.77
2022-12-01T19:32:36.704Z,27.10
2022-12-01T19:35:03.556Z,28.67
2022-12-01T19:37:30.093Z,28.40
2022-12-01T19:39:57.575Z,27.40
2022-12-01T19:42:26.139Z,31.03
2022-12-01T19:44:52.839Z,33.97
2022-12-01T19:47:22.459Z,30.33
2022-12-01T19:49:49.336Z,32.70
2022-12-01T19:52:16.085Z,34.83
2022-12-01T19:54:42.803Z,51.07
2022-12-01T19:57:09.363Z,43.93
2022-12-01T19:59:35.934Z,40.07
2022-12-01T20:02:02.740Z,35.83
2022-12-01T20:04:29.326Z,50.90
2022-12-01T20:06:55.842Z,30.40
2022-12-01T20:09:22.766Z,37.30
2022-12-01T20:11:49.307Z,33.43
2022-12-01T20:14:16.257Z,40.80
2022-12-01T20:16:42.802Z,37.87
2022-12-01T20:19:10.897Z,30.03
2022-12-01T20:21:44.541Z,30.47
2022-12-01T20:24:13.926Z,28.70
2022-12-01T20:26:43.569Z,26.43
2022-12-01T20:29:13.512Z,30.03
2022-12-01T20:31:41.740Z,29.33
2022-12-01T20:34:12.805Z,31.07
2022-12-01T20:36:41.049Z,26.70
2022-12-01T20:39:09.271Z,28.53
2022-12-01T20:41:36.698Z,26.37
2022-12-01T20:44:07.272Z,28.83
2022-12-01T20:46:35.129Z,30.07
2022-12-01T20:49:01.842Z,29.17
2022-12-01T20:51:28.509Z,28.70
2022-12-01T20:54:26.280Z,29.53
2022-12-01T20:56:41.984Z,26.50
2022-12-01T20:59:08.528Z,30.87
2022-12-01T21:01:35.595Z,34.40
2022-12-01T21:04:02.496Z,31.33
2022-12-01T21:06:29.273Z,29.23
2022-12-01T21:08:56.161Z,31.87
2022-12-01T21:11:42.984Z,33.13
2022-12-01T21:14:36.635Z,34.63
2022-12-01T21:17:29.465Z,34.60
2022-12-01T21:20:05.272Z,33.90
2022-12-01T21:22:31.965Z,35.37
2022-12-01T21:25:18.934Z,33.80
2022-12-01T21:27:47.225Z,36.43
2022-12-01T21:30:22.511Z,34.53
2022-12-01T21:32:49.577Z,35.03
2022-12-01T21:35:19.250Z,46.37
2022-12-01T21:37:47.216Z,36.77
2022-12-01T21:40:20.314Z,68.00
2022-12-01T21:42:47.177Z,43.30
2022-12-01T21:45:26.530Z,36.60
2022-12-01T21:47:57.266Z,38.43
2022-12-01T21:50:25.331Z,37.70
2022-12-01T21:52:51.926Z,34.17
2022-12-01T21:55:18.382Z,36.17
2022-12-01T21:57:47.741Z,34.40
2022-12-01T22:00:29.205Z,38.10
2022-12-01T22:03:01.338Z,34.17
2022-12-01T22:05:35.181Z,33.17
2022-12-01T22:08:13.690Z,36.30
2022-12-01T22:10:52.621Z,34.40
2022-12-01T22:13:23.245Z,39.47
2022-12-01T22:15:50.566Z,46.00
2022-12-01T22:18:23.946Z,35.83
2022-12-01T22:20:50.497Z,37.30
2022-12-01T22:23:18.809Z,36.00
2022-12-01T22:25:46.452Z,38.93
2022-12-01T22:28:21.911Z,36.83
2022-12-01T22:30:48.837Z,38.13
2022-12-01T22:33:23.912Z,41.97
2022-12-01T22:35:52.520Z,46.23
2022-12-01T22:38:24.987Z,47.40
2022-12-01T22:40:55.872Z,47.97
2022-12-01T22:43:50.706Z,40.97
2022-12-01T22:46:27.769Z,39.87
2022-12-01T22:48:57.222Z,38.97
2022-12-01T22:51:28.415Z,42.53
2022-12-01T22:54:28.702Z,40.50
2022-12-01T22:57:16.712Z,37.83
2022-12-01T22:59:44.671Z,40.83
2022-12-01T23:02:20.604Z,42.23
2022-12-01T23:04:48.997Z,41.33
2022-12-01T23:07:35.296Z,44.47
2022-12-01T23:10:20.510Z,40.87
2022-12-01T23:12:49.483Z,43.67
2022-12-01T23:15:32.851Z,40.90
2022-12-01T23:18:16.078Z,39.77
2022-12-01T23:20:44.167Z,42.67
2022-12-01T23:23:16.614Z,41.37
2022-12-01T23:25:44.752Z,47.30
2022-12-01T23:28:13.007Z,54.17
2022-12-01T23:30:42.346Z,43.37
2022-12-01T23:33:08.860Z,41.50
2022-12-01T23:35:41.438Z,39.97
2022-12-01T23:38:31.070Z,38.80
2022-12-01T23:41:01.176Z,40.47
2022-12-01T23:43:31.751Z,38.13
2022-12-01T23:46:04.657Z,41.53
2022-12-01T23:48:37.911Z,43.13
2022-12-01T23:51:10.024Z,39.53
2022-12-01T23:53:39.315Z,39.40
2022-12-01T23:56:10.226Z,40.60
2022-12-01T23:58:36.746Z,38.90
